Date,TemperatureHighF,TemperatureAvgF,TemperatureLowF,DewpointHighF,DewpointAvgF,DewpointLowF,HumidityHigh,HumidityAvg,HumidityLow,PressureMaxIn,PressureMinIn,WindSpeedMaxMPH,WindSpeedAvgMPH,GustSpeedMaxMPH,PrecipitationSumIn
2013-1-1,31,15,3,18,10,2,97,80,50,0.00,40.00,12,7,14,0.00
2013-1-2,33,24,11,23,16,5,92,73,57,0.00,40.00,19,11,27,0.00
2013-1-3,36,20,8,17,11,2,91,70,41,0.00,40.00,12,8,17,0.00
2013-1-4,41,23,10,21,11,2,80,61,37,0.00,40.00,13,8,15,0.00
2013-1-5,41,27,17,26,18,10,87,69,52,0.00,40.00,17,10,29,0.00
2013-1-6,47,27,10,28,19,6,88,72,44,0.00,40.00,18,12,24,0.00
2013-1-7,47,33,22,26,22,18,93,67,38,0.00,40.00,11,7,14,0.00
2013-1-8,51,33,20,31,24,17,91,71,43,0.00,40.00,16,8,22,0.00
2013-1-9,54,35,20,30,24,18,93,67,35,0.00,40.00,20,12,24,0.00
2013-1-10,51,38,31,41,33,24,99,81,67,0.00,40.00,17,10,24,0.00
2013-1-11,54,32,11,36,22,4,99,71,21,0.00,40.00,33,16,45,0.00
2013-1-12,19,11,3,6,3,0,86,71,54,0.00,40.00,20,9,24,0.00
2013-1-13,22,9,0,7,1,-4,85,72,48,0.00,40.00,11,6,16,0.00
2013-1-14,22,12,-2,19,10,-5,95,88,82,0.00,40.00,11,5,12,0.00
2013-1-15,32,19,0,25,10,-3,94,72,42,0.00,40.00,13,7,21,0.00
2013-1-16,49,37,26,27,24,20,78,60,39,0.00,40.00,22,10,31,0.00
2013-1-17,52,36,25,25,20,16,76,57,28,0.00,40.00,12,8,16,0.00
2013-1-18,62,39,26,25,20,11,79,51,20,0.00,40.00,14,10,22,0.00
2013-1-19,58,41,26,24,19,14,62,43,25,0.00,40.00,17,9,24,0.00
2013-1-20,48,28,13,24,19,13,99,74,33,0.00,40.00,29,11,36,0.00
2013-1-21,47,26,11,26,19,11,99,76,39,0.00,40.00,13,8,17,0.00
2013-1-22,58,36,13,24,16,8,95,51,20,0.00,40.00,17,8,22,0.00
2013-1-23,57,36,22,22,17,12,95,51,20,0.00,40.00,13,9,16,0.00
2013-1-24,22,19,18,21,19,18,99,99,96,0.00,40.00,16,10,20,0.00
2013-1-25,55,44,31,29,25,20,67,48,35,0.00,40.00,14,9,19,0.00
2013-1-26,61,41,20,37,27,18,93,62,31,0.00,40.00,11,7,14,0.00
2013-1-27,57,40,29,40,35,29,99,83,47,0.00,40.00,11,6,16,0.00
2013-1-28,62,39,30,37,32,28,99,81,27,0.00,40.00,22,12,31,0.00
2013-1-29,31,27,20,28,21,14,95,79,53,0.00,40.00,21,13,27,0.00
2013-1-30,39,25,8,23,14,5,86,65,35,0.00,40.00,24,11,34,0.00
2013-1-31,36,27,16,23,17,12,93,66,50,0.00,40.00,19,8,27,0.00
2013-2-1,56,33,17,31,23,16,97,73,24,0.00,40.00,24,9,30,0.00
2013-2-2,55,37,24,28,22,12,96,60,25,0.00,40.00,14,8,17,0.00
2013-2-3,54,36,18,24,19,11,87,53,28,0.00,40.00,20,9,27,0.00
2013-2-4,59,39,22,24,18,8,76,45,21,0.00,40.00,14,7,21,0.00
2013-2-5,56,39,22,29,22,16,81,52,33,0.00,40.00,18,8,22,0.00
2013-2-6,63,44,25,30,24,17,75,48,27,0.00,40.00,23,11,30,0.00
2013-2-7,51,37,19,30,22,10,97,57,28,0.00,40.00,16,8,24,0.00
2013-2-8,57,40,20,28,22,12,74,51,31,0.00,40.00,33,18,42,0.00
2013-2-9,56,38,24,36,25,16,99,64,34,0.00,40.00,21,12,30,0.00
2013-2-10,36,28,17,26,21,12,90,76,54,0.00,40.00,28,17,40,0.00
2013-2-11,35,23,13,16,12,8,85,63,40,0.00,40.00,11,5,16,0.00
2013-2-12,44,27,12,21,11,6,85,55,24,0.00,40.00,17,9,24,0.00
2013-2-13,53,35,17,22,16,10,75,50,26,0.00,40.00,21,11,29,0.00
2013-2-14,37,28,14,30,20,10,90,72,47,0.00,40.00,27,11,35,0.00
2013-2-15,36,22,9,25,17,6,94,81,55,0.00,40.00,21,8,27,0.00
2013-2-16,57,36,23,25,20,12,87,56,28,0.00,40.00,18,12,29,0.00
2013-2-17,64,43,23,26,16,3,73,41,13,0.00,40.00,33,13,40,0.00
2013-2-18,44,30,14,29,21,13,98,74,36,0.00,40.00,26,14,36,0.00
2013-2-19,41,26,5,24,15,4,97,68,37,0.00,40.00,26,14,38,0.00
2013-2-20,27,24,19,26,21,15,99,89,63,0.00,40.00,25,13,33,0.00
2013-2-21,21,15,4,21,13,2,97,91,83,0.00,40.00,9,5,11,0.00
2013-2-22,37,18,-4,23,12,-7,94,80,52,0.00,40.00,11,5,15,0.00
2013-2-23,42,26,11,27,20,8,97,79,46,0.00,40.00,15,8,18,0.00
2013-2-24,30,27,24,28,26,24,99,94,82,0.00,40.00,26,13,31,0.00
2013-2-25,33,26,11,27,21,6,97,80,60,0.00,40.00,19,11,24,0.00
2013-2-26,36,23,5,25,16,2,93,76,47,0.00,40.00,20,10,26,0.00
2013-2-27,36,30,20,28,22,15,92,74,53,0.00,40.00,25,15,34,0.00
2013-2-28,42,30,18,24,18,12,80,62,42,0.00,40.00,17,9,22,0.00
2013-3-1,41,33,24,29,25,20,93,72,54,0.00,40.00,16,8,22,0.00
2013-3-2,61,44,30,33,31,26,91,62,33,0.00,40.00,17,9,25,0.00
2013-3-3,66,48,31,33,31,27,84,54,28,0.00,40.00,17,7,22,0.00
2013-3-4,43,33,17,33,25,7,99,72,57,0.00,40.00,24,13,32,0.00
2013-3-5,42,26,12,19,14,6,83,60,36,0.00,40.00,14,8,21,0.00
2013-3-6,56,35,19,27,22,16,87,62,31,0.00,40.00,17,11,26,0.00
2013-3-7,59,40,24,31,28,21,94,65,32,0.00,40.00,12,6,19,0.00
2013-3-8,55,38,25,39,31,24,97,77,43,0.00,40.00,15,7,17,0.00
2013-3-9,42,34,28,40,33,20,99,93,76,0.00,40.00,36,20,48,0.00
2013-3-10,31,24,14,21,17,11,90,73,54,0.00,40.00,32,17,43,0.00
2013-3-11,49,33,11,35,24,9,96,72,41,0.00,40.00,22,10,29,0.00
2013-3-12,46,35,27,32,24,20,96,66,35,0.00,40.00,15,8,21,0.00
2013-3-13,67,45,26,33,28,23,92,59,24,0.00,40.00,13,8,20,0.00
2013-3-14,73,54,38,36,31,25,68,44,21,0.00,40.00,13,9,17,0.00
2013-3-15,79,60,40,37,32,26,65,37,20,0.00,40.00,21,10,30,0.00
2013-3-16,53,42,33,35,31,27,91,67,44,0.00,40.00,22,9,29,0.00
2013-3-17,57,40,24,37,27,19,92,63,36,0.00,40.00,29,16,39,0.00
2013-3-18,54,37,20,26,17,10,93,49,21,0.00,40.00,23,10,35,0.00
2013-3-19,51,35,22,25,19,14,95,55,27,0.00,40.00,21,12,30,0.00
2013-3-20,53,35,16,23,20,15,99,60,28,0.00,40.00,24,12,31,0.00
2013-3-21,49,36,21,35,26,20,99,71,41,0.00,40.00,18,8,23,0.00
2013-3-22,50,36,24,33,26,19,99,71,31,0.00,40.00,16,7,25,0.00
2013-3-23,32,24,15,31,22,11,98,93,84,0.00,40.00,30,18,35,0.00
2013-3-24,31,17,-1,21,10,-5,92,76,58,0.00,40.00,14,9,19,0.00
2013-3-25,30,14,-3,15,6,-6,86,72,53,0.00,40.00,12,8,19,0.00
2013-3-26,38,23,2,30,16,-4,88,73,63,0.00,40.00,19,10,23,0.00
2013-3-27,51,37,24,34,29,22,93,74,49,0.00,40.00,12,5,14,0.00
2013-3-28,61,43,30,37,33,28,95,70,37,0.00,40.00,15,9,19,0.00
2013-3-29,69,48,33,45,37,31,93,68,30,0.00,40.00,15,8,24,0.00
2013-3-30,66,50,40,45,37,-100,91,65,32,0.00,40.00,29,10,39,0.00
2013-3-31,71,50,32,39,31,22,98,57,19,0.00,40.00,19,9,27,0.00
2013-4-1,47,36,26,29,26,24,99,71,44,0.00,40.00,13,9,19,0.00
2013-4-2,39,36,32,35,29,22,99,77,60,0.00,40.00,14,10,19,0.00
2013-4-3,50,39,32,33,30,27,99,70,43,0.00,40.00,20,12,26,0.00
2013-4-4,68,49,27,36,32,26,96,56,26,0.00,40.00,16,8,20,0.00
2013-4-5,80,59,46,38,31,28,52,36,19,0.00,40.00,19,10,43,0.00
2013-4-6,70,57,41,38,32,25,84,40,22,0.00,40.00,21,10,31,0.00
2013-4-7,72,56,41,44,34,29,84,47,23,0.00,40.00,16,9,24,0.00
2013-4-8,74,55,35,56,41,31,99,64,31,0.00,40.00,34,15,45,0.00
2013-4-9,36,18,12,35,16,9,99,92,87,0.00,40.00,35,6,45,0.00
2013-4-10,25,18,10,17,13,8,90,80,68,0.00,40.00,16,5,21,0.00
2013-4-11,49,32,14,32,22,11,91,67,46,0.00,40.00,27,11,41,0.00
2013-4-12,53,38,23,39,32,23,99,83,42,0.00,40.00,33,8,40,0.00
2013-4-13,71,49,26,40,31,21,99,60,15,0.00,40.00,24,12,35,0.00
2013-4-14,55,48,37,42,20,9,80,36,15,0.00,40.00,30,16,50,0.00
2013-4-15,44,37,26,30,23,15,87,57,36,0.00,40.00,23,12,29,0.00
2013-4-16,41,34,29,31,26,24,94,74,51,0.00,40.00,26,15,32,0.00
2013-4-17,34,29,23,30,26,22,99,90,66,0.00,40.00,16,10,21,0.00
2013-4-18,33,26,21,22,18,15,93,73,53,0.00,40.00,30,14,39,0.00
2013-4-19,58,41,22,25,20,15,74,46,24,0.00,40.00,21,11,30,0.00
2013-4-20,59,44,30,32,28,24,93,60,29,0.00,40.00,15,9,19,0.00
2013-4-21,64,52,29,38,32,27,95,53,27,0.00,40.00,17,7,30,0.00
2013-4-22,54,37,24,43,33,22,98,88,56,0.00,40.00,32,16,40,0.00
2013-4-23,38,27,21,23,20,16,97,78,49,0.00,40.00,19,11,24,0.00
2013-4-24,56,37,18,27,21,14,87,55,25,0.00,40.00,19,8,28,0.00
2013-4-25,72,51,27,40,30,24,91,50,22,0.00,40.00,21,10,28,0.00
2013-4-26,73,56,36,41,29,19,89,42,16,0.00,40.00,22,11,32,0.00
2013-4-27,80,60,35,39,29,21,81,37,16,0.00,40.00,17,8,23,0.00
2013-4-28,87,65,41,39,34,25,65,35,16,0.00,40.00,17,10,25,0.00
2013-4-29,83,64,45,46,40,33,76,44,22,0.00,40.00,18,9,25,0.00
2013-4-30,65,56,44,42,38,28,83,53,41,0.00,40.00,30,16,39,0.00
2013-5-1,44,32,28,37,31,27,99,95,61,0.00,40.00,25,18,36,0.00
2013-5-2,49,35,26,29,25,20,98,69,34,0.00,40.00,15,7,32,0.00
2013-5-3,58,43,26,26,24,21,93,51,27,0.00,40.00,17,8,24,0.00
2013-5-4,58,44,30,25,20,14,74,40,22,0.00,40.00,22,10,29,0.00
2013-5-5,66,47,27,29,24,17,83,44,24,0.00,40.00,10,6,17,0.00
2013-5-6,73,55,32,42,33,24,75,46,27,0.00,40.00,22,12,36,0.00
2013-5-7,73,58,46,53,46,40,96,67,34,0.00,40.00,16,7,20,0.00
2013-5-8,73,56,47,52,47,35,99,75,27,0.00,40.00,23,9,32,0.00
2013-5-9,65,52,42,48,45,39,99,76,39,0.00,40.00,20,10,24,0.00
2013-5-10,68,53,38,52,42,-100,99,74,35,0.00,40.00,15,8,22,0.00
2013-5-11,70,54,44,47,37,-100,94,59,28,0.00,40.00,14,8,21,0.00
2013-5-12,80,64,45,46,40,35,96,51,22,0.00,40.00,18,10,26,0.00
2013-5-13,85,63,53,50,44,38,68,52,26,0.00,40.00,14,9,18,0.00
2013-6-12,95,77,61,63,55,45,93,52,23,0.00,40.00,24,10,30,0.00
2013-6-13,91,68,54,61,55,53,94,67,36,0.00,40.00,32,12,52,0.00
2013-6-14,86,74,61,64,56,49,96,56,32,0.00,40.00,25,11,47,0.00
2013-6-15,88,72,60,63,56,49,92,59,36,0.00,40.00,16,7,24,0.00
2013-6-16,91,71,59,64,57,46,94,67,27,0.00,40.00,32,10,47,0.00
2013-6-17,83,67,52,58,54,51,99,67,36,0.00,40.00,22,9,34,0.00
2013-6-18,87,70,53,58,53,47,96,61,28,0.00,40.00,33,11,45,0.00
2013-6-19,85,72,59,63,60,54,96,68,43,0.00,40.00,28,17,37,0.00
2013-7-12,92,92,92,55,55,55,27,27,27,0.00,40.00,12,12,17,0.00
2013-7-13,96,96,96,61,61,61,32,32,32,0.00,40.00,6,6,9,0.00
2013-7-15,80,70,61,60,56,48,97,67,33,0.00,40.00,12,8,20,0.00
2013-7-16,82,75,64,60,54,52,84,51,36,0.00,40.00,17,15,23,0.00
2013-7-17,66,66,66,59,59,59,78,78,78,0.00,40.00,16,16,23,0.00
2013-7-18,79,79,79,54,54,54,42,42,42,0.00,40.00,9,9,11,0.00
2013-7-19,80,72,65,64,62,61,96,72,53,0.00,40.00,16,12,24,0.00
2013-7-20,78,74,58,63,62,58,98,68,58,0.00,40.00,9,7,12,0.00
2013-7-22,95,83,69,68,58,51,99,46,27,0.00,40.00,17,12,24,0.00
2013-7-23,88,68,63,61,59,56,89,74,34,0.00,40.00,17,12,24,0.00
2013-7-24,80,80,80,60,60,60,50,50,50,0.00,40.00,9,9,16,0.00
2013-7-25,80,78,72,60,59,59,66,53,49,0.00,40.00,5,3,13,0.00
2013-7-26,83,83,83,56,56,56,39,39,39,0.00,40.00,11,11,16,0.00
2013-7-27,59,59,59,57,57,57,92,92,92,0.00,40.00,9,9,13,0.00